createdAt,value
2022-11-20T00:00:45.298Z,9.27
2022-11-20T00:03:12.999Z,11.65
2022-11-20T00:05:42.077Z,10.10
2022-11-20T00:08:09.760Z,12.05
2022-11-20T00:10:38.282Z,9.88
2022-11-20T00:13:06.016Z,9.50
2022-11-20T00:15:33.706Z,10.07
2022-11-20T00:18:01.556Z,11.77
2022-11-20T00:20:29.628Z,10.15
2022-11-20T00:22:58.684Z,9.85
2022-11-20T00:25:26.372Z,10.15
2022-11-20T00:27:54.039Z,10.10
2022-11-20T00:30:21.710Z,11.57
2022-11-20T00:32:49.488Z,10.02
2022-11-20T00:35:17.206Z,10.35
2022-11-20T00:37:44.922Z,10.70
2022-11-20T00:40:14.958Z,9.57
2022-11-20T00:42:42.629Z,9.55
2022-11-20T00:45:10.584Z,9.88
2022-11-20T00:47:38.288Z,9.48
2022-11-20T00:50:06.838Z,10.65
2022-11-20T00:52:34.474Z,10.50
2022-11-20T00:55:02.202Z,10.65
2022-11-20T00:57:31.255Z,10.55
2022-11-20T00:59:58.974Z,9.23
2022-11-20T01:02:26.643Z,10.07
2022-11-20T01:04:54.303Z,11.18
2022-11-20T01:07:22.051Z,9.23
2022-11-20T01:09:49.760Z,10.18
2022-11-20T01:12:17.373Z,13.27
2022-11-20T01:14:46.361Z,16.33
2022-11-20T01:17:14.130Z,10.55
2022-11-20T01:19:41.908Z,12.18
2022-11-20T01:22:09.528Z,11.95
2022-11-20T01:24:37.218Z,11.75
2022-11-20T01:27:04.946Z,11.65
2022-11-20T01:29:32.722Z,11.75
2022-11-20T01:32:01.764Z,11.55
2022-11-20T01:34:29.432Z,12.73
2022-11-20T01:36:57.088Z,9.63
2022-11-20T01:39:26.873Z,10.68
2022-11-20T01:42:14.192Z,10.40
2022-11-20T01:44:49.710Z,10.90
2022-11-20T01:47:24.094Z,10.50
2022-11-20T01:49:55.101Z,10.25
2022-11-20T01:52:26.716Z,10.73
2022-11-20T01:54:58.254Z,10.68
2022-11-20T01:57:29.593Z,11.90
2022-11-20T02:00:03.477Z,18.75
2022-11-20T02:02:32.880Z,12.43
2022-11-20T02:05:06.991Z,11.25
2022-11-20T02:07:34.869Z,10.30
2022-11-20T02:10:02.889Z,11.88
2022-11-20T02:12:48.137Z,10.63
2022-11-20T02:15:16.017Z,11.05
2022-11-20T02:17:45.093Z,12.45
2022-11-20T02:20:14.014Z,11.82
2022-11-20T02:22:50.589Z,11.00
2022-11-20T02:25:21.857Z,11.85
2022-11-20T02:27:49.936Z,12.38
2022-11-20T02:30:18.079Z,11.45
2022-11-20T02:32:45.835Z,10.55
2022-11-20T02:35:42.074Z,12.68
2022-11-20T02:38:10.270Z,12.43
2022-11-20T02:40:39.269Z,9.45
2022-11-20T02:43:07.192Z,10.77
2022-11-20T02:45:34.889Z,13.35
2022-11-20T02:48:02.695Z,12.10
2022-11-20T02:50:30.339Z,10.48
2022-11-20T02:52:58.022Z,12.10
2022-11-20T02:55:25.673Z,11.88
2022-11-20T02:57:54.716Z,11.05
2022-11-20T03:00:22.544Z,12.85
2022-11-20T03:02:50.242Z,12.85
2022-11-20T03:05:17.961Z,10.00
2022-11-20T03:07:46.003Z,9.75
2022-11-20T03:10:13.938Z,11.82
2022-11-20T03:12:41.658Z,10.77
2022-11-20T03:15:12.190Z,10.88
2022-11-20T03:17:39.829Z,11.82
2022-11-20T03:20:10.068Z,10.40
2022-11-20T03:22:37.873Z,11.82
2022-11-20T03:25:06.391Z,12.98
2022-11-20T03:27:35.784Z,10.93
2022-11-20T03:30:03.758Z,10.00
2022-11-20T03:32:33.110Z,11.50
2022-11-20T03:35:00.873Z,9.45
2022-11-20T03:37:28.540Z,13.07
2022-11-20T03:39:56.169Z,11.25
2022-11-20T03:42:41.382Z,14.43
2022-11-20T03:45:09.824Z,11.57
2022-11-20T03:47:38.827Z,11.43
2022-11-20T03:50:07.829Z,13.25
2022-11-20T03:52:35.502Z,10.90
2022-11-20T03:55:03.237Z,10.35
2022-11-20T03:57:30.942Z,10.60
2022-11-20T03:59:58.769Z,10.38
2022-11-20T04:02:26.450Z,13.35
2022-11-20T04:04:55.498Z,11.15
2022-11-20T04:07:23.215Z,11.05
2022-11-20T04:09:50.932Z,14.18
2022-11-20T04:12:18.589Z,10.10
2022-11-20T04:14:46.388Z,12.55
2022-11-20T04:17:14.085Z,13.80
2022-11-20T04:19:41.792Z,13.80
2022-11-20T04:22:12.583Z,11.07
2022-11-20T04:24:40.267Z,10.32
2022-11-20T04:27:07.968Z,15.80
2022-11-20T04:29:35.691Z,13.02
2022-11-20T04:32:03.394Z,11.20
2022-11-20T04:34:31.094Z,10.07
2022-11-20T04:36:58.806Z,11.18
2022-11-20T04:39:27.824Z,12.98
2022-11-20T04:42:15.534Z,12.60
2022-11-20T04:44:43.191Z,10.57
2022-11-20T04:47:10.804Z,11.45
2022-11-20T04:49:38.527Z,13.93
2022-11-20T04:52:06.238Z,12.52
2022-11-20T04:54:35.281Z,11.07
2022-11-20T04:57:02.981Z,12.27
2022-11-20T04:59:30.696Z,10.40
2022-11-20T05:01:58.375Z,15.10
2022-11-20T05:04:26.157Z,13.38
2022-11-20T05:06:53.811Z,10.68
2022-11-20T05:09:21.594Z,11.95
2022-11-20T05:11:51.734Z,11.25
2022-11-20T05:14:19.529Z,9.93
2022-11-20T05:16:47.359Z,11.25
2022-11-20T05:19:15.180Z,12.40
2022-11-20T05:21:42.913Z,11.70
2022-11-20T05:24:10.831Z,13.60
2022-11-20T05:26:38.719Z,9.57
2022-11-20T05:29:07.725Z,12.20
2022-11-20T05:31:35.448Z,10.75
2022-11-20T05:34:03.192Z,12.90
2022-11-20T05:36:32.042Z,10.40
2022-11-20T05:39:01.713Z,12.27
2022-11-20T05:41:30.176Z,10.57
2022-11-20T05:43:58.896Z,10.98
2022-11-20T05:46:29.489Z,13.57
2022-11-20T05:48:58.460Z,12.60
2022-11-20T05:51:27.649Z,11.82
2022-11-20T05:53:55.398Z,12.30
2022-11-20T05:56:24.171Z,10.35
2022-11-20T05:58:52.043Z,9.52
2022-11-20T06:01:22.087Z,12.20
2022-11-20T06:03:51.795Z,11.55
2022-11-20T06:06:20.837Z,11.18
2022-11-20T06:08:48.886Z,11.90
2022-11-20T06:11:17.596Z,10.70
2022-11-20T06:13:46.399Z,10.30
2022-11-20T06:16:16.412Z,12.55
2022-11-20T06:18:44.282Z,11.10
2022-11-20T06:21:15.675Z,9.60
2022-11-20T06:23:44.138Z,9.52
2022-11-20T06:26:15.637Z,14.02
2022-11-20T06:28:43.321Z,12.05
2022-11-20T06:31:14.317Z,9.85
2022-11-20T06:33:42.168Z,10.35
2022-11-20T06:36:11.028Z,10.05
2022-11-20T06:38:41.012Z,8.68
2022-11-20T06:41:09.556Z,10.10
2022-11-20T06:43:37.221Z,10.18
2022-11-20T06:46:04.983Z,9.90
2022-11-20T06:48:32.722Z,11.85
2022-11-20T06:51:00.957Z,9.65
2022-11-20T06:53:28.633Z,9.45
2022-11-20T06:55:58.683Z,10.38
2022-11-20T06:58:28.805Z,9.77
2022-11-20T07:00:59.626Z,10.30
2022-11-20T07:03:27.333Z,10.73
2022-11-20T07:05:57.324Z,11.00
2022-11-20T07:08:25.339Z,13.77
2022-11-20T07:10:53.331Z,10.82
2022-11-20T07:13:22.417Z,9.45
2022-11-20T07:15:50.117Z,9.98
2022-11-20T07:18:17.756Z,12.00
2022-11-20T07:20:45.472Z,11.73
2022-11-20T07:23:13.189Z,8.85
2022-11-20T07:25:40.895Z,10.45
2022-11-20T07:28:08.579Z,10.65
2022-11-20T07:30:37.601Z,9.63
2022-11-20T07:33:05.568Z,10.80
2022-11-20T07:35:34.776Z,11.32
2022-11-20T07:38:02.440Z,9.27
2022-11-20T07:40:30.150Z,9.80
2022-11-20T07:42:57.947Z,10.57
2022-11-20T07:45:26.651Z,11.15
2022-11-20T07:47:55.665Z,10.05
2022-11-20T07:50:23.341Z,12.52
2022-11-20T07:52:51.577Z,10.65
2022-11-20T07:55:19.420Z,9.57
2022-11-20T07:57:47.097Z,12.98
2022-11-20T08:00:16.217Z,10.23
2022-11-20T08:02:43.906Z,12.30
2022-11-20T08:05:12.991Z,10.55
2022-11-20T08:07:41.670Z,10.57
2022-11-20T08:10:11.439Z,11.40
2022-11-20T08:13:03.502Z,11.35
2022-11-20T08:15:32.192Z,10.80
2022-11-20T08:18:29.938Z,10.65
2022-11-20T08:20:57.135Z,9.82
2022-11-20T08:23:25.237Z,10.82
2022-11-20T08:25:53.062Z,11.27
2022-11-20T08:28:22.148Z,8.57
2022-11-20T08:30:51.120Z,11.15
2022-11-20T08:33:19.470Z,10.75
2022-11-20T08:35:47.768Z,11.05
2022-11-20T08:38:16.812Z,9.48
2022-11-20T08:41:05.445Z,8.85
2022-11-20T08:43:33.200Z,10.70
2022-11-20T08:46:00.898Z,11.65
2022-11-20T08:48:28.579Z,13.93
2022-11-20T08:50:59.989Z,9.70
2022-11-20T08:53:29.501Z,12.05
2022-11-20T08:55:58.836Z,10.15
2022-11-20T08:58:26.952Z,9.85
2022-11-20T09:00:55.089Z,12.10
2022-11-20T09:03:23.102Z,12.82
2022-11-20T09:05:51.554Z,12.88
2022-11-20T09:08:19.250Z,10.77
2022-11-20T09:10:53.566Z,14.18
2022-11-20T09:13:21.407Z,11.82
2022-11-20T09:15:49.133Z,13.38
2022-11-20T09:18:16.773Z,14.13
2022-11-20T09:20:44.600Z,14.32
2022-11-20T09:23:12.265Z,17.90
2022-11-20T09:25:39.992Z,14.88
2022-11-20T09:28:09.064Z,16.73
2022-11-20T09:30:36.762Z,17.40
2022-11-20T09:33:06.493Z,28.33
2022-11-20T09:35:34.399Z,19.60
2022-11-20T09:38:06.882Z,17.00
2022-11-20T09:40:37.012Z,21.08
2022-11-20T09:43:14.684Z,23.83
2022-11-20T09:45:58.609Z,18.95
2022-11-20T09:48:50.258Z,20.45
2022-11-20T09:51:29.701Z,19.88
2022-11-20T09:54:12.217Z,21.00
2022-11-20T09:56:43.609Z,21.27
2022-11-20T09:59:29.530Z,20.55
2022-11-20T10:01:57.925Z,24.40
2022-11-20T10:04:26.706Z,25.42
2022-11-20T10:07:31.955Z,22.38
2022-11-20T10:09:54.468Z,23.27
2022-11-20T10:12:33.377Z,25.75
2022-11-20T10:15:13.694Z,26.48
2022-11-20T10:17:56.190Z,23.80
2022-11-20T10:20:32.260Z,23.77
2022-11-20T10:23:24.299Z,26.47
2022-11-20T10:26:02.952Z,21.02
2022-11-20T10:28:55.418Z,26.10
2022-11-20T10:31:34.006Z,19.98
2022-11-20T10:34:12.568Z,23.15
2022-11-20T10:36:46.192Z,24.90
2022-11-20T10:39:21.460Z,25.77
2022-11-20T10:41:54.180Z,22.45
2022-11-20T10:44:41.162Z,25.95
2022-11-20T10:47:15.855Z,21.90
2022-11-20T10:49:45.369Z,22.00
2022-11-20T10:52:22.136Z,22.25
2022-11-20T10:54:57.305Z,21.02
2022-11-20T10:57:37.623Z,24.13
2022-11-20T11:00:08.464Z,21.17
2022-11-20T11:02:45.313Z,21.67
2022-11-20T11:05:25.261Z,23.23
2022-11-20T11:07:56.498Z,23.15
2022-11-20T11:10:29.474Z,24.15
2022-11-20T11:12:57.180Z,24.13
2022-11-20T11:15:30.408Z,27.30
2022-11-20T11:17:59.481Z,23.02
2022-11-20T11:20:28.314Z,22.73
2022-11-20T11:22:57.908Z,22.92
2022-11-20T11:25:31.736Z,21.98
2022-11-20T11:28:02.118Z,23.20
2022-11-20T11:30:32.935Z,21.60
2022-11-20T11:33:11.622Z,25.25
2022-11-20T11:35:49.933Z,27.60
2022-11-20T11:38:23.920Z,27.73
2022-11-20T11:40:55.200Z,25.02
2022-11-20T11:43:43.499Z,22.67
2022-11-20T11:46:27.518Z,21.58
2022-11-20T11:49:01.588Z,22.40
2022-11-20T11:51:36.236Z,22.10
2022-11-20T11:54:12.984Z,21.88
2022-11-20T11:56:41.042Z,23.60
2022-11-20T11:59:17.882Z,21.50
2022-11-20T12:01:50.267Z,22.38
2022-11-20T12:04:27.314Z,22.13
2022-11-20T12:07:18.247Z,27.25
2022-11-20T12:09:56.027Z,22.70
2022-11-20T12:12:29.136Z,22.63
2022-11-20T12:14:58.165Z,24.58
2022-11-20T12:17:25.970Z,22.77
2022-11-20T12:19:55.036Z,21.52
2022-11-20T12:22:31.352Z,24.75
2022-11-20T12:25:04.261Z,22.58
2022-11-20T12:27:59.235Z,24.50
2022-11-20T12:30:27.068Z,20.40
2022-11-20T12:33:12.456Z,26.45
2022-11-20T12:35:52.259Z,23.25
2022-11-20T12:38:52.036Z,24.77
2022-11-20T12:41:47.169Z,25.13
2022-11-20T12:44:47.767Z,24.73
2022-11-20T12:47:26.166Z,23.77
2022-11-20T12:50:04.295Z,19.92
2022-11-20T12:52:42.906Z,21.48
2022-11-20T12:55:18.152Z,27.33
2022-11-20T12:57:52.057Z,24.27
2022-11-20T13:00:21.649Z,23.30
2022-11-20T13:03:25.973Z,23.02
2022-11-20T13:06:02.195Z,23.27
2022-11-20T13:08:35.117Z,23.53
2022-11-20T13:11:10.701Z,35.55
2022-11-20T13:13:51.212Z,22.60
2022-11-20T13:16:26.092Z,27.23
2022-11-20T13:18:53.992Z,25.08
2022-11-20T13:21:25.064Z,29.25
2022-11-20T13:23:54.135Z,23.95
2022-11-20T13:26:24.759Z,27.00
2022-11-20T13:29:05.091Z,26.60
2022-11-20T13:31:34.723Z,24.23
2022-11-20T13:34:05.176Z,24.27
2022-11-20T13:36:33.463Z,26.38
2022-11-20T13:39:05.466Z,24.50
2022-11-20T13:41:36.368Z,21.77
2022-11-20T13:44:14.969Z,24.92
2022-11-20T13:46:45.444Z,23.38
2022-11-20T13:49:20.517Z,24.17
2022-11-20T13:51:51.526Z,22.02
2022-11-20T13:54:54.703Z,23.65
2022-11-20T13:57:50.265Z,25.27
2022-11-20T14:00:20.347Z,23.98
2022-11-20T14:03:01.605Z,25.20
2022-11-20T14:05:30.376Z,25.40
2022-11-20T14:07:59.081Z,24.20
2022-11-20T14:10:32.308Z,26.95
2022-11-20T14:13:01.005Z,20.67
2022-11-20T14:15:31.146Z,24.08
2022-11-20T14:17:59.460Z,21.63
2022-11-20T14:20:32.232Z,21.95
2022-11-20T14:22:59.898Z,22.35
2022-11-20T14:25:28.974Z,22.75
2022-11-20T14:27:59.286Z,24.85
2022-11-20T14:30:29.753Z,22.58
2022-11-20T14:33:02.304Z,25.08
2022-11-20T14:35:33.585Z,22.38
2022-11-20T14:38:02.601Z,26.98
2022-11-20T14:40:33.912Z,25.38
2022-11-20T14:43:01.737Z,24.10
2022-11-20T14:45:29.733Z,23.48
2022-11-20T14:47:59.808Z,22.15
2022-11-20T14:50:31.300Z,21.48
2022-11-20T14:53:00.592Z,25.67
2022-11-20T14:55:31.992Z,23.25
2022-11-20T14:58:01.566Z,24.42
2022-11-20T15:00:30.487Z,22.75
2022-11-20T15:02:58.731Z,22.55
2022-11-20T15:05:28.276Z,23.00
2022-11-20T15:08:08.069Z,25.75
2022-11-20T15:10:38.040Z,25.65
2022-11-20T15:13:12.572Z,23.27
2022-11-20T15:15:46.269Z,22.23
2022-11-20T15:18:15.293Z,27.48
2022-11-20T15:20:43.864Z,21.20
2022-11-20T15:23:13.866Z,21.60
2022-11-20T15:25:43.743Z,23.63
2022-11-20T15:28:18.904Z,23.10
2022-11-20T15:30:47.689Z,23.60
2022-11-20T15:33:16.514Z,21.45
2022-11-20T15:35:44.608Z,22.20
2022-11-20T15:38:12.331Z,23.02
2022-11-20T15:40:40.015Z,20.67
2022-11-20T15:43:13.400Z,23.02
2022-11-20T15:45:44.833Z,24.40
2022-11-20T15:48:16.828Z,21.05
2022-11-20T15:50:51.783Z,20.25
2022-11-20T15:53:19.662Z,22.90
2022-11-20T15:55:47.530Z,18.33
2022-11-20T15:58:17.661Z,19.63
2022-11-20T16:00:45.538Z,20.88
2022-11-20T16:03:13.769Z,18.90
2022-11-20T16:05:41.613Z,17.23
2022-11-20T16:08:11.780Z,16.65
2022-11-20T16:10:40.083Z,17.17
2022-11-20T16:13:32.538Z,16.90
2022-11-20T16:16:05.917Z,17.02
2022-11-20T16:18:34.629Z,18.30
2022-11-20T16:21:02.944Z,18.75
2022-11-20T16:23:30.775Z,15.35
2022-11-20T16:25:58.441Z,14.57
2022-11-20T16:28:26.152Z,14.90
2022-11-20T16:30:53.791Z,15.25
2022-11-20T16:33:22.929Z,12.25
2022-11-20T16:35:50.586Z,14.55
2022-11-20T16:38:18.237Z,19.80
2022-11-20T16:40:45.885Z,11.48
2022-11-20T16:43:15.918Z,14.75
2022-11-20T16:45:45.353Z,11.93
2022-11-20T16:48:17.785Z,10.70
2022-11-20T16:50:51.434Z,13.43
2022-11-20T16:53:19.544Z,17.77
2022-11-20T16:55:47.824Z,9.38
2022-11-20T16:58:15.623Z,9.98
2022-11-20T17:00:48.338Z,10.32
2022-11-20T17:03:19.018Z,11.30
2022-11-20T17:05:46.842Z,9.07
2022-11-20T17:08:15.873Z,7.63
2022-11-20T17:10:43.602Z,8.20
2022-11-20T17:13:11.316Z,7.10
2022-11-20T17:15:39.021Z,8.25
2022-11-20T17:18:06.791Z,6.07
2022-11-20T17:20:34.496Z,5.43
2022-11-20T17:23:02.125Z,10.57
2022-11-20T17:25:34.012Z,6.00
2022-11-20T17:28:01.659Z,7.90
2022-11-20T17:30:29.421Z,5.80
2022-11-20T17:32:57.129Z,5.47
2022-11-20T17:35:24.851Z,5.38
2022-11-20T17:37:52.627Z,7.53
2022-11-20T17:40:25.921Z,6.00
2022-11-20T17:42:56.404Z,4.90
2022-11-20T17:45:24.213Z,5.90
2022-11-20T17:47:52.132Z,4.85
2022-11-20T17:50:19.900Z,9.63
2022-11-20T17:52:47.577Z,7.40
2022-11-20T17:55:15.312Z,11.00
2022-11-20T17:57:56.498Z,9.43
2022-11-20T18:00:27.011Z,8.02
2022-11-20T18:02:55.198Z,11.13
2022-11-20T18:05:22.972Z,12.57
2022-11-20T18:07:53.621Z,12.98
2022-11-20T18:10:21.346Z,12.60
2022-11-20T18:12:49.053Z,11.23
2022-11-20T18:15:17.265Z,11.60
2022-11-20T18:17:46.345Z,13.00
2022-11-20T18:20:28.603Z,7.93
2022-11-20T18:22:57.427Z,10.32
2022-11-20T18:25:25.224Z,9.05
2022-11-20T18:27:52.885Z,9.70
2022-11-20T18:30:20.582Z,15.65
2022-11-20T18:32:50.114Z,9.20
2022-11-20T18:35:17.949Z,12.90
2022-11-20T18:37:45.670Z,16.92
2022-11-20T18:40:14.546Z,9.80
2022-11-20T18:43:14.644Z,11.70
2022-11-20T18:45:42.367Z,13.98
2022-11-20T18:48:11.371Z,13.60
2022-11-20T18:50:39.063Z,10.07
2022-11-20T18:53:06.831Z,13.32
2022-11-20T18:55:34.574Z,12.55
2022-11-20T18:58:02.299Z,10.77
2022-11-20T19:00:30.028Z,11.48
2022-11-20T19:02:57.670Z,8.55
2022-11-20T19:05:26.761Z,11.15
2022-11-20T19:07:54.420Z,12.15
2022-11-20T19:10:24.303Z,10.68
2022-11-20T19:12:52.035Z,12.77
2022-11-20T19:15:20.328Z,12.23
2022-11-20T19:17:48.037Z,10.52
2022-11-20T19:20:15.940Z,10.38
2022-11-20T19:22:45.010Z,7.28
2022-11-20T19:25:12.655Z,12.40
2022-11-20T19:27:40.394Z,11.40
2022-11-20T19:30:09.108Z,8.07
2022-11-20T19:32:36.805Z,9.82
2022-11-20T19:35:04.958Z,11.55
2022-11-20T19:37:34.749Z,13.18
2022-11-20T19:40:05.355Z,9.85
2022-11-20T19:42:33.487Z,28.98
2022-11-20T19:45:01.166Z,11.70
2022-11-20T19:47:46.402Z,11.40
2022-11-20T19:50:17.047Z,16.88
2022-11-20T19:52:44.805Z,10.93
2022-11-20T19:55:13.822Z,13.05
2022-11-20T19:57:41.488Z,10.40
2022-11-20T20:00:10.620Z,13.75
2022-11-20T20:02:38.301Z,12.18
2022-11-20T20:05:06.704Z,9.85
2022-11-20T20:07:34.673Z,11.27
2022-11-20T20:10:02.728Z,9.60
2022-11-20T20:12:31.853Z,14.63
2022-11-20T20:14:59.554Z,11.35
2022-11-20T20:17:27.231Z,10.27
2022-11-20T20:19:54.912Z,13.48
2022-11-20T20:22:22.619Z,14.52
2022-11-20T20:24:52.008Z,13.25
2022-11-20T20:27:19.729Z,8.60
2022-11-20T20:29:48.752Z,12.32
2022-11-20T20:32:16.391Z,11.00
2022-11-20T20:34:44.077Z,10.88
2022-11-20T20:37:11.789Z,16.70
2022-11-20T20:39:39.452Z,14.18
2022-11-20T20:42:07.094Z,17.88
2022-11-20T20:44:52.149Z,14.98
2022-11-20T20:47:21.188Z,13.48
2022-11-20T20:49:48.878Z,16.17
2022-11-20T20:52:16.557Z,20.77
2022-11-20T20:54:44.209Z,13.52
2022-11-20T20:57:11.940Z,12.88
2022-11-20T20:59:39.597Z,11.35
2022-11-20T21:02:07.361Z,19.58
2022-11-20T21:04:36.437Z,13.35
2022-11-20T21:07:04.340Z,12.98
2022-11-20T21:09:32.093Z,11.73
2022-11-20T21:11:59.766Z,13.40
2022-11-20T21:14:27.397Z,20.23
2022-11-20T21:16:55.134Z,15.77
2022-11-20T21:19:22.783Z,10.15
2022-11-20T21:22:00.008Z,17.83
2022-11-20T21:24:28.298Z,10.32
2022-11-20T21:26:56.315Z,14.38
2022-11-20T21:29:25.571Z,13.98
2022-11-20T21:31:54.052Z,16.80
2022-11-20T21:34:23.285Z,10.48
2022-11-20T21:36:52.879Z,12.95
2022-11-20T21:39:21.741Z,12.10
2022-11-20T21:41:49.494Z,13.07
2022-11-20T21:44:30.951Z,8.88
2022-11-20T21:46:59.199Z,14.98
2022-11-20T21:49:26.897Z,11.40
2022-11-20T21:51:55.976Z,12.77
2022-11-20T21:54:23.903Z,13.82
2022-11-20T21:56:51.828Z,8.60
2022-11-20T21:59:19.569Z,10.68
2022-11-20T22:01:47.272Z,13.07
2022-11-20T22:04:15.992Z,9.82
2022-11-20T22:06:43.708Z,11.40
2022-11-20T22:09:12.698Z,15.30
2022-11-20T22:11:40.492Z,13.77
2022-11-20T22:14:23.237Z,9.57
2022-11-20T22:16:53.346Z,15.23
2022-11-20T22:19:23.225Z,18.38
2022-11-20T22:21:51.666Z,14.38
2022-11-20T22:24:22.518Z,16.15
2022-11-20T22:26:50.927Z,12.35
2022-11-20T22:29:20.870Z,10.63
2022-11-20T22:31:48.846Z,14.27
2022-11-20T22:34:16.618Z,21.83
2022-11-20T22:36:44.678Z,12.23
2022-11-20T22:39:12.397Z,11.35
2022-11-20T22:41:41.421Z,12.85
2022-11-20T22:44:09.453Z,14.13
2022-11-20T22:46:38.394Z,15.20
2022-11-20T22:49:08.497Z,17.85
2022-11-20T22:51:37.903Z,17.48
2022-11-20T22:54:06.042Z,11.38
2022-11-20T22:56:34.656Z,14.43
2022-11-20T22:59:04.040Z,15.00
2022-11-20T23:01:33.403Z,19.42
2022-11-20T23:04:02.711Z,11.82
2022-11-20T23:06:30.866Z,12.52
2022-11-20T23:08:58.540Z,13.68
2022-11-20T23:11:27.939Z,13.27
2022-11-20T23:13:58.027Z,12.40
2022-11-20T23:16:28.628Z,13.90
2022-11-20T23:18:57.784Z,13.52
2022-11-20T23:21:26.044Z,14.90
2022-11-20T23:23:55.692Z,15.68
2022-11-20T23:26:24.942Z,15.07
2022-11-20T23:28:54.505Z,14.23
2022-11-20T23:31:22.363Z,15.98
2022-11-20T23:33:51.648Z,17.75
2022-11-20T23:36:19.628Z,14.25
2022-11-20T23:38:47.533Z,11.48
2022-11-20T23:41:15.771Z,12.05
2022-11-20T23:43:43.448Z,10.00
2022-11-20T23:46:16.269Z,12.63
2022-11-20T23:48:45.751Z,13.10
2022-11-20T23:51:15.048Z,13.35
2022-11-20T23:53:42.778Z,12.95
2022-11-20T23:56:14.234Z,13.93
2022-11-20T23:58:42.332Z,14.35
